Time;durP1;ratioP1;P1;durP2;ratioP2;P2;SDS_P1;SDS_P2;PMS_P1;PMS_P2;Temp;Humidity;BMP_temperature;BMP_pressure;BME280_temperature;BME280_humidity;BME280_pressure;Samples;Min_cycle;Max_cycle;Signal;HPM_P1;HPM_P2
2021/12/12 00:02:10;;;;;;;5.23;1.00;;;21.80;99.90;;;;;;5071411;28;20717;-70
2021/12/12 00:04:44;;;;;;;6.67;1.33;;;21.60;99.90;;;;;;5072205;28;20273;-72
2021/12/12 00:07:15;;;;;;;7.83;1.83;;;21.70;99.90;;;;;;5072420;28;20190;-71
2021/12/12 00:09:46;;;;;;;5.07;1.07;;;22.40;99.90;;;;;;5072437;28;20189;-69
2021/12/12 00:12:19;;;;;;;5.83;1.30;;;22.30;99.90;;;;;;5070618;28;20184;-70
2021/12/12 00:14:47;;;;;;;3.93;1.17;;;22.20;99.90;;;;;;5072141;28;20199;-70
2021/12/12 00:17:15;;;;;;;5.67;1.33;;;22.00;99.90;;;;;;5072397;28;20196;-71
2021/12/12 00:19:42;;;;;;;2.43;0.90;;;21.70;99.90;;;;;;5070847;28;20323;-70
2021/12/12 00:22:14;;;;;;;4.67;1.07;;;21.70;99.90;;;;;;5072321;28;20613;-71
2021/12/12 00:24:42;;;;;;;3.07;0.97;;;21.70;99.90;;;;;;5072030;28;20184;-71
2021/12/12 00:27:10;;;;;;;5.67;1.43;;;21.90;99.90;;;;;;5071863;28;20210;-70
2021/12/12 00:29:38;;;;;;;6.63;1.13;;;22.30;99.90;;;;;;5073040;28;20226;-71
2021/12/12 00:32:10;;;;;;;5.40;1.20;;;23.20;99.90;;;;;;5071367;28;20183;-71
2021/12/12 00:34:42;;;;;;;4.33;1.07;;;24.50;99.90;;;;;;5072076;28;20184;-71
2021/12/12 00:37:10;;;;;;;5.40;1.00;;;24.00;99.90;;;;;;5072345;28;20628;-69
2021/12/12 00:39:40;;;;;;;4.77;1.00;;;24.70;99.90;;;;;;5072120;28;20175;-71
2021/12/12 00:42:15;;;;;;;2.67;0.60;;;25.00;99.90;;;;;;5072122;28;20217;-71
2021/12/12 00:44:50;;;;;;;2.03;0.80;;;26.00;99.90;;;;;;5072088;28;20599;-70
2021/12/12 00:47:18;;;;;;;4.30;0.90;;;26.30;99.90;;;;;;5072090;28;20173;-69
2021/12/12 00:49:46;;;;;;;3.73;0.73;;;26.40;99.90;;;;;;5071973;28;20172;-69
2021/12/12 00:52:16;;;;;;;3.40;0.70;;;25.90;99.90;;;;;;5071581;28;20168;-69
2021/12/12 00:54:45;;;;;;;2.17;0.70;;;24.90;99.90;;;;;;5069623;28;20203;-70
2021/12/12 00:57:16;;;;;;;1.73;0.50;;;24.50;99.90;;;;;;5071145;28;20221;-71
2021/12/12 00:59:47;;;;;;;2.10;0.60;;;24.30;99.90;;;;;;5071851;28;20267;-71
2021/12/12 01:02:25;;;;;;;3.33;0.90;;;23.90;99.90;;;;;;5071725;28;20667;-72
2021/12/12 01:04:56;;;;;;;3.53;0.80;;;23.30;99.90;;;;;;5071605;28;20223;-71
2021/12/12 01:07:33;;;;;;;3.10;0.70;;;23.00;99.90;;;;;;5071889;28;20228;-70
2021/12/12 01:10:12;;;;;;;3.13;0.70;;;22.80;99.90;;;;;;5071663;28;20190;-68
2021/12/12 01:12:40;;;;;;;3.40;0.63;;;22.90;99.90;;;;;;5071181;28;20210;-70
2021/12/12 01:15:51;;;;;;;2.80;0.60;;;22.90;99.90;;;;;;5071403;28;20679;-71
2021/12/12 01:18:28;;;;;;;2.47;0.70;;;23.40;99.90;;;;;;5071633;28;20547;-69
2021/12/12 01:21:11;;;;;;;4.30;0.97;;;23.40;99.90;;;;;;5071599;28;20194;-69
2021/12/12 01:24:06;;;;;;;2.87;1.03;;;23.50;99.90;;;;;;5071086;28;20190;-69
2021/12/12 01:26:34;;;;;;;1.30;0.60;;;23.60;99.90;;;;;;5071355;28;20645;-71
2021/12/12 01:29:03;;;;;;;2.40;0.77;;;23.10;99.90;;;;;;5070992;28;20284;-69
2021/12/12 01:31:33;;;;;;;3.30;0.77;;;23.10;99.90;;;;;;5071454;28;20251;-69
2021/12/12 01:34:10;;;;;;;5.10;0.80;;;23.00;99.90;;;;;;5069778;28;20212;-69
2021/12/12 01:36:57;;;;;;;3.87;0.87;;;23.20;99.90;;;;;;5070133;28;20256;-68
2021/12/12 01:39:26;;;;;;;4.23;0.93;;;23.20;99.90;;;;;;5071054;28;20182;-70
2021/12/12 01:41:57;;;;;;;3.30;0.90;;;23.20;99.90;;;;;;5071579;28;20175;-72
2021/12/12 01:44:31;;;;;;;1.50;0.60;;;23.30;99.90;;;;;;5071264;28;20184;-72
2021/12/12 01:47:04;;;;;;;4.10;0.97;;;23.20;99.90;;;;;;5071346;28;20190;-71
2021/12/12 01:49:35;;;;;;;2.53;0.60;;;24.20;99.90;;;;;;5051506;28;20710;-72
2021/12/12 01:52:05;;;;;;;7.63;1.10;;;25.70;99.90;;;;;;5050117;28;20188;-71
2021/12/12 01:54:44;;;;;;;2.20;0.73;;;25.40;99.90;;;;;;5066489;28;20600;-71
2021/12/12 01:57:18;;;;;;;3.30;1.00;;;24.60;99.90;;;;;;5070617;28;20202;-69
2021/12/12 01:59:48;;;;;;;9.03;1.17;;;24.30;99.90;;;;;;5070941;28;20286;-68
2021/12/12 02:02:19;;;;;;;4.27;1.17;;;24.50;99.90;;;;;;5070982;28;20213;-71
2021/12/12 02:04:51;;;;;;;4.47;0.90;;;25.20;99.90;;;;;;5070930;28;20200;-70
2021/12/12 02:07:26;;;;;;;2.87;1.10;;;26.10;99.90;;;;;;5070969;28;20192;-69
2021/12/12 02:09:55;;;;;;;3.07;0.80;;;26.20;99.90;;;;;;5058204;28;20183;-69
2021/12/12 02:12:24;;;;;;;8.03;1.27;;;25.90;99.90;;;;;;5074843;28;20183;-70
2021/12/12 02:14:53;;;;;;;3.97;1.10;;;25.70;99.90;;;;;;5074555;28;20292;-69
2021/12/12 02:17:39;;;;;;;3.83;0.83;;;25.50;99.90;;;;;;5074952;28;20170;-69
2021/12/12 02:20:18;;;;;;;3.90;1.17;;;25.30;99.90;;;;;;5074162;28;20211;-68
2021/12/12 02:23:02;;;;;;;7.10;1.20;;;24.60;99.90;;;;;;5074898;28;20202;-71
2021/12/12 02:36:37;;;;;;;9.07;1.37;;;23.90;99.90;;;;;;5054693;28;20211;-71
2021/12/12 02:39:20;;;;;;;5.33;1.00;;;24.50;99.90;;;;;;5071807;28;20179;-69
2021/12/12 02:41:52;;;;;;;3.40;0.80;;;24.20;99.90;;;;;;5091679;28;20183;-70
2021/12/12 02:44:27;;;;;;;7.97;1.30;;;23.70;99.90;;;;;;5078116;28;20179;-69
2021/12/12 02:46:58;;;;;;;5.70;1.10;;;23.80;99.90;;;;;;5077893;28;20633;-70
2021/12/12 02:49:42;;;;;;;4.77;0.93;;;23.90;99.90;;;;;;5074004;28;20172;-69
2021/12/12 02:52:16;;;;;;;6.30;1.37;;;24.20;99.90;;;;;;5074195;28;20546;-69
2021/12/12 02:54:44;;;;;;;6.83;1.13;;;24.10;99.90;;;;;;5074257;28;20186;-69
2021/12/12 02:57:14;;;;;;;5.00;1.30;;;24.10;99.90;;;;;;5074327;28;20175;-70
2021/12/12 02:59:48;;;;;;;3.10;0.93;;;24.00;99.90;;;;;;5074318;28;20188;-69
2021/12/12 03:02:26;;;;;;;6.93;1.50;;;23.90;99.90;;;;;;5074127;28;20175;-70
2021/12/12 03:04:57;;;;;;;2.83;0.80;;;23.90;99.90;;;;;;5073681;28;20234;-69
2021/12/12 03:07:25;;;;;;;2.87;1.10;;;23.60;99.90;;;;;;5073815;28;20187;-70
2021/12/12 03:09:56;;;;;;;6.77;1.20;;;24.10;99.90;;;;;;5073829;28;20224;-68
2021/12/12 03:12:31;;;;;;;6.83;2.33;;;23.90;99.90;;;;;;5073680;28;20241;-69
2021/12/12 03:15:03;;;;;;;8.93;1.67;;;23.80;99.90;;;;;;5073915;28;20206;-70
2021/12/12 03:17:31;;;;;;;6.57;1.50;;;23.70;99.90;;;;;;5074000;28;20176;-69
2021/12/12 03:20:06;;;;;;;4.77;1.20;;;23.60;99.90;;;;;;5072850;28;20238;-69
2021/12/12 03:22:34;;;;;;;3.70;1.10;;;23.50;99.90;;;;;;5073680;28;20663;-69
2021/12/12 03:25:01;;;;;;;6.27;1.50;;;23.50;99.90;;;;;;5073855;28;20186;-69
2021/12/12 03:27:28;;;;;;;6.57;1.27;;;23.70;99.90;;;;;;5073704;28;20184;-70
2021/12/12 03:29:56;;;;;;;6.80;1.27;;;24.40;99.90;;;;;;5073313;28;20181;-70
2021/12/12 03:32:24;;;;;;;5.17;1.30;;;25.30;99.90;;;;;;5073393;28;20176;-70
2021/12/12 03:34:57;;;;;;;5.47;1.30;;;25.20;99.90;;;;;;5073575;28;20273;-69
2021/12/12 03:37:27;;;;;;;5.67;1.33;;;24.60;99.90;;;;;;5073596;28;20186;-70
2021/12/12 03:39:59;;;;;;;6.10;1.53;;;25.20;99.90;;;;;;5071786;28;20187;-68
2021/12/12 03:42:29;;;;;;;5.40;1.50;;;26.00;99.90;;;;;;5072108;28;20222;-69
2021/12/12 03:44:58;;;;;;;12.40;1.63;;;26.70;99.90;;;;;;5073349;28;20188;-71
2021/12/12 03:47:41;;;;;;;4.70;1.40;;;26.70;99.90;;;;;;5073349;28;20174;-70
2021/12/12 03:50:24;;;;;;;5.07;1.60;;;26.90;99.90;;;;;;5073179;28;20190;-71
2021/12/12 03:52:52;;;;;;;6.57;1.67;;;25.00;99.90;;;;;;5073003;28;20291;-71
2021/12/12 03:55:22;;;;;;;5.33;1.83;;;24.50;99.90;;;;;;5073083;28;20551;-70
2021/12/12 03:57:50;;;;;;;7.90;2.20;;;23.80;99.90;;;;;;5072847;28;20310;-69
2021/12/12 04:00:35;;;;;;;6.33;1.40;;;23.40;99.90;;;;;;5071320;28;20188;-71
2021/12/12 04:03:03;;;;;;;6.67;1.80;;;23.00;99.90;;;;;;5072676;28;20209;-71
2021/12/12 04:05:30;;;;;;;7.17;1.67;;;24.00;99.90;;;;;;5070048;28;20281;-72
2021/12/12 04:07:57;;;;;;;10.17;1.97;;;24.20;99.90;;;;;;5072580;28;20358;-71
2021/12/12 04:10:25;;;;;;;7.13;1.50;;;24.60;99.90;;;;;;5072288;28;20539;-72
2021/12/12 04:12:54;;;;;;;5.40;1.60;;;25.00;99.90;;;;;;5072767;28;20719;-70
2021/12/12 04:15:23;;;;;;;7.17;1.53;;;24.70;99.90;;;;;;5071286;28;20641;-71
2021/12/12 04:17:51;;;;;;;6.17;1.50;;;25.00;99.90;;;;;;5069824;28;20176;-70
2021/12/12 04:20:26;;;;;;;9.20;2.57;;;24.90;99.90;;;;;;5072239;28;20191;-70
2021/12/12 04:22:54;;;;;;;6.60;2.10;;;24.00;99.90;;;;;;5071475;28;20186;-69
2021/12/12 04:25:23;;;;;;;5.70;1.37;;;23.80;99.90;;;;;;5072810;28;20183;-70
2021/12/12 04:27:53;;;;;;;8.73;2.00;;;23.70;99.90;;;;;;5072820;28;20217;-70
2021/12/12 04:30:23;;;;;;;6.47;1.53;;;24.50;99.90;;;;;;5071975;28;20677;-70
2021/12/12 04:32:52;;;;;;;8.13;1.93;;;25.20;99.90;;;;;;5071095;28;20604;-69
2021/12/12 04:35:28;;;;;;;7.67;1.60;;;25.30;99.90;;;;;;5070921;28;20596;-70
2021/12/12 04:37:58;;;;;;;11.50;2.10;;;24.40;99.90;;;;;;5072406;28;20645;-70
2021/12/12 04:40:29;;;;;;;8.17;1.40;;;24.10;99.90;;;;;;5070538;28;20566;-70
2021/12/12 04:42:57;;;;;;;9.67;2.10;;;23.80;99.90;;;;;;5072348;28;20178;-69
2021/12/12 04:46:06;;;;;;;6.50;1.80;;;23.50;99.90;;;;;;5072233;28;20207;-71
2021/12/12 04:51:46;;;;;;;6.73;1.53;;;23.20;99.90;;;;;;5052535;28;20199;-70
2021/12/12 04:54:23;;;;;;;11.60;2.03;;;22.90;99.90;;;;;;5070151;28;20225;-70
2021/12/12 04:56:57;;;;;;;10.23;2.07;;;22.80;99.90;;;;;;5076426;28;20174;-71
2021/12/12 04:59:41;;;;;;;10.17;1.73;;;22.80;99.90;;;;;;5072349;28;20594;-72
2021/12/12 05:02:10;;;;;;;8.17;2.20;;;23.30;99.90;;;;;;5071917;28;20651;-71
2021/12/12 05:04:52;;;;;;;9.20;1.60;;;23.50;99.90;;;;;;5071642;28;20734;-70
2021/12/12 05:07:42;;;;;;;9.47;1.90;;;24.00;99.90;;;;;;5071895;28;20179;-70
2021/12/12 05:10:23;;;;;;;6.40;1.60;;;24.10;99.90;;;;;;5070340;28;20204;-69
2021/12/12 05:13:05;;;;;;;13.13;6.20;;;24.40;99.90;;;;;;5071482;28;20298;-68
2021/12/12 05:15:38;;;;;;;15.57;5.80;;;24.50;99.90;;;;;;5071519;28;20175;-69
2021/12/12 05:18:11;;;;;;;7.37;1.90;;;24.90;99.90;;;;;;5071742;28;20190;-69
2021/12/12 05:20:53;;;;;;;8.63;1.67;;;25.20;99.90;;;;;;5071602;28;20312;-70
2021/12/12 05:23:22;;;;;;;5.17;1.80;;;25.60;99.90;;;;;;5071722;28;20786;-69
2021/12/12 05:26:03;;;;;;;9.60;2.10;;;25.70;99.90;;;;;;5071038;28;20225;-69
2021/12/12 05:28:34;;;;;;;12.03;1.77;;;25.40;99.90;;;;;;5071524;28;20202;-70
2021/12/12 05:31:04;;;;;;;8.03;1.70;;;25.70;99.90;;;;;;5071230;28;20641;-70
2021/12/12 05:33:32;;;;;;;9.23;2.23;;;25.10;99.90;;;;;;5071563;28;20227;-69
2021/12/12 05:36:01;;;;;;;6.70;1.70;;;24.20;99.90;;;;;;5071632;28;20190;-70
2021/12/12 05:38:29;;;;;;;11.10;2.23;;;24.30;99.90;;;;;;5070002;28;20190;-69
2021/12/12 05:40:57;;;;;;;6.03;2.00;;;24.60;99.90;;;;;;5071151;28;20184;-70
2021/12/12 05:43:25;;;;;;;8.20;1.77;;;24.90;99.90;;;;;;5073379;28;20179;-70
2021/12/12 05:45:53;;;;;;;8.90;1.90;;;25.20;99.90;;;;;;5075485;28;20176;-71
2021/12/12 05:48:22;;;;;;;6.87;1.90;;;24.90;99.90;;;;;;5075480;28;20176;-70
2021/12/12 05:50:54;;;;;;;9.20;1.60;;;24.20;99.90;;;;;;5075095;28;20755;-70
2021/12/12 05:53:22;;;;;;;9.53;1.53;;;24.40;99.90;;;;;;5075061;28;20207;-72
2021/12/12 05:55:51;;;;;;;6.63;1.67;;;25.00;99.90;;;;;;5075080;28;20220;-70
2021/12/12 05:58:21;;;;;;;9.43;1.90;;;25.20;99.90;;;;;;5075106;28;20183;-71
2021/12/12 06:00:49;;;;;;;6.97;1.63;;;25.00;99.90;;;;;;5073478;28;20220;-70
2021/12/12 06:03:18;;;;;;;10.93;2.37;;;24.50;99.90;;;;;;5074913;28;20176;-69
2021/12/12 06:05:46;;;;;;;8.07;1.80;;;24.20;99.90;;;;;;5073733;28;20707;-71
2021/12/12 06:08:15;;;;;;;9.73;2.10;;;24.60;99.90;;;;;;5075094;28;20649;-69
2021/12/12 06:10:44;;;;;;;18.30;7.93;;;25.00;99.90;;;;;;5074799;28;20183;-70
2021/12/12 06:13:15;;;;;;;19.03;9.13;;;24.90;99.90;;;;;;5074815;28;20234;-70
2021/12/12 06:15:45;;;;;;;12.47;4.00;;;24.60;99.90;;;;;;5074522;28;20215;-70
2021/12/12 06:18:13;;;;;;;9.77;3.30;;;24.30;99.90;;;;;;5074442;28;20182;-70
2021/12/12 06:20:41;;;;;;;9.67;3.37;;;24.60;99.90;;;;;;5074569;28;20539;-71
2021/12/12 06:23:10;;;;;;;11.30;2.73;;;24.70;99.90;;;;;;5074835;28;20188;-71
2021/12/12 06:25:38;;;;;;;10.27;2.37;;;24.60;99.90;;;;;;5074753;28;20229;-71
2021/12/12 06:28:12;;;;;;;8.63;2.13;;;24.70;99.90;;;;;;5074207;28;20186;-71
2021/12/12 06:30:39;;;;;;;11.37;2.60;;;24.30;99.90;;;;;;5074658;28;20191;-71
2021/12/12 06:33:07;;;;;;;8.37;2.97;;;24.20;99.90;;;;;;5074533;28;20298;-69
2021/12/12 06:35:34;;;;;;;7.60;1.87;;;24.20;99.90;;;;;;5074969;28;20183;-71
2021/12/12 06:38:05;;;;;;;9.17;1.90;;;24.10;99.90;;;;;;5073449;28;20186;-71
2021/12/12 06:40:33;;;;;;;18.03;2.33;;;23.70;99.90;;;;;;5069435;28;20195;-70
2021/12/12 06:43:06;;;;;;;12.17;2.20;;;23.50;99.90;;;;;;5074673;28;20193;-70
2021/12/12 06:45:35;;;;;;;11.77;2.40;;;23.10;99.90;;;;;;5074672;28;20186;-70
2021/12/12 06:48:07;;;;;;;8.70;1.93;;;23.40;99.90;;;;;;5074124;28;20571;-70
2021/12/12 06:50:38;;;;;;;10.57;2.07;;;23.30;99.90;;;;;;5066937;28;20193;-71
2021/12/12 06:53:06;;;;;;;9.60;1.83;;;22.80;99.90;;;;;;5063811;28;20245;-70
2021/12/12 06:55:36;;;;;;;8.27;1.60;;;22.80;99.90;;;;;;5072851;28;20187;-70
2021/12/12 06:58:07;;;;;;;10.53;1.97;;;23.10;99.90;;;;;;5073719;28;20191;-72
2021/12/12 07:00:35;;;;;;;8.23;2.00;;;23.10;99.90;;;;;;5073359;28;20231;-70
2021/12/12 07:03:04;;;;;;;8.93;1.70;;;22.90;99.90;;;;;;5074193;28;20210;-71
2021/12/12 07:05:32;;;;;;;11.70;1.90;;;22.90;99.90;;;;;;5074064;28;20220;-71
2021/12/12 07:08:03;;;;;;;9.43;1.77;;;22.90;99.90;;;;;;5074154;28;20597;-70
2021/12/12 07:10:31;;;;;;;13.17;2.20;;;23.10;99.90;;;;;;5074138;28;20186;-70
2021/12/12 07:12:59;;;;;;;8.90;2.10;;;23.00;99.90;;;;;;5075718;28;20218;-71
2021/12/12 07:15:50;;;;;;;11.03;1.83;;;22.70;99.90;;;;;;5073153;28;20245;-69
2021/12/12 07:18:20;;;;;;;8.93;2.00;;;22.70;99.90;;;;;;5062881;28;20185;-70
2021/12/12 07:20:51;;;;;;;5.60;1.60;;;21.90;99.90;;;;;;5064415;28;20194;-71
2021/12/12 07:23:19;;;;;;;13.07;1.90;;;21.60;99.90;;;;;;5073576;28;20168;-71
2021/12/12 07:25:47;;;;;;;7.53;1.57;;;21.30;99.90;;;;;;5073673;28;20176;-70
2021/12/12 07:28:17;;;;;;;10.77;2.40;;;21.40;99.90;;;;;;5073568;28;20624;-71
2021/12/12 07:30:45;;;;;;;9.20;2.23;;;21.20;99.90;;;;;;5073288;28;20183;-72
2021/12/12 07:33:14;;;;;;;9.87;1.70;;;21.30;99.90;;;;;;5073590;28;20211;-71
2021/12/12 07:35:44;;;;;;;9.13;1.67;;;21.70;99.90;;;;;;5073327;28;20200;-69
2021/12/12 07:38:15;;;;;;;7.70;2.13;;;22.00;99.90;;;;;;5073270;28;20249;-71
2021/12/12 07:40:45;;;;;;;11.60;2.80;;;22.30;99.90;;;;;;5073117;28;20656;-71
2021/12/12 07:43:13;;;;;;;13.63;2.67;;;22.70;99.90;;;;;;5073269;28;20193;-71
2021/12/12 07:45:41;;;;;;;10.53;2.23;;;22.90;99.90;;;;;;5073409;28;20205;-71
2021/12/12 07:48:11;;;;;;;15.40;2.43;;;23.00;99.90;;;;;;5073448;28;20300;-72
2021/12/12 07:50:41;;;;;;;7.10;1.97;;;22.60;99.90;;;;;;5072927;28;20291;-71
2021/12/12 07:53:09;;;;;;;11.73;1.73;;;22.00;99.90;;;;;;5073235;28;20223;-70
2021/12/12 07:55:38;;;;;;;8.73;2.30;;;22.10;99.90;;;;;;5073005;28;20682;-73
2021/12/12 07:58:11;;;;;;;11.07;2.10;;;22.20;99.90;;;;;;5073437;28;20943;-69
2021/12/12 08:00:41;;;;;;;14.90;2.07;;;21.80;99.90;;;;;;5072831;28;20594;-70
2021/12/12 08:03:09;;;;;;;11.90;2.13;;;21.70;99.90;;;;;;5073177;28;20211;-71
2021/12/12 08:05:37;;;;;;;7.77;1.80;;;21.20;99.90;;;;;;5072323;28;20734;-69
2021/12/12 08:08:10;;;;;;;7.00;1.90;;;20.80;99.90;;;;;;5072706;28;20195;-70
2021/12/12 08:10:40;;;;;;;9.47;2.30;;;20.70;99.90;;;;;;5072541;28;20198;-72
2021/12/12 08:13:11;;;;;;;11.23;1.83;;;20.60;99.90;;;;;;5072354;28;20679;-69
2021/12/12 08:15:39;;;;;;;7.13;1.70;;;20.30;99.90;;;;;;5072598;28;20230;-71
2021/12/12 08:18:10;;;;;;;7.60;1.60;;;20.40;99.90;;;;;;5072771;28;20192;-72
2021/12/12 08:20:38;;;;;;;8.00;2.13;;;20.10;99.90;;;;;;5072395;28;20265;-72
2021/12/12 08:23:07;;;;;;;13.63;2.13;;;20.10;99.90;;;;;;5072145;28;20210;-70
2021/12/12 08:25:36;;;;;;;8.13;2.00;;;20.00;99.90;;;;;;5072562;28;20181;-70
2021/12/12 08:28:05;;;;;;;8.73;1.80;;;19.90;99.90;;;;;;5072898;28;20190;-70
2021/12/12 08:30:36;;;;;;;11.23;2.33;;;19.90;99.90;;;;;;5072427;28;20172;-71
2021/12/12 08:33:06;;;;;;;9.77;1.90;;;19.80;99.90;;;;;;5072048;28;20397;-70
2021/12/12 08:35:34;;;;;;;14.37;1.83;;;19.70;99.90;;;;;;5072240;28;20187;-70
2021/12/12 08:38:04;;;;;;;10.47;2.17;;;19.60;99.90;;;;;;5072317;28;20664;-69
2021/12/12 08:40:37;;;;;;;9.07;1.70;;;19.50;99.90;;;;;;5072039;28;20189;-69
2021/12/12 08:43:12;;;;;;;7.83;1.87;;;19.40;99.90;;;;;;5072142;28;20180;-68
2021/12/12 08:45:44;;;;;;;7.43;2.03;;;19.40;99.90;;;;;;5072405;28;20266;-70
2021/12/12 08:48:12;;;;;;;11.47;2.10;;;19.30;99.90;;;;;;5072362;28;20191;-69
2021/12/12 08:50:41;;;;;;;10.80;2.13;;;19.20;99.90;;;;;;5072081;28;20194;-69
2021/12/12 08:53:10;;;;;;;9.20;1.83;;;19.20;99.90;;;;;;5073143;28;20216;-72
2021/12/12 08:55:43;;;;;;;7.03;1.70;;;19.10;99.90;;;;;;5073214;28;20184;-70
2021/12/12 08:58:16;;;;;;;11.30;2.20;;;19.10;99.90;;;;;;5072069;28;20230;-70
2021/12/12 09:00:49;;;;;;;8.97;2.20;;;19.10;99.90;;;;;;5073091;28;20180;-70
2021/12/12 09:03:49;;;;;;;8.03;1.90;;;19.00;99.90;;;;;;5072491;28;20216;-69
2021/12/12 09:06:18;;;;;;;10.07;2.67;;;18.90;99.90;;;;;;5072779;28;20226;-70
2021/12/12 09:08:57;;;;;;;9.13;2.03;;;18.90;99.90;;;;;;5073580;28;20183;-69
2021/12/12 09:11:37;;;;;;;9.40;1.93;;;18.90;99.90;;;;;;5072949;28;20679;-70
2021/12/12 09:14:20;;;;;;;6.93;1.93;;;18.90;99.90;;;;;;5072490;28;20696;-70
2021/12/12 09:16:56;;;;;;;7.43;1.80;;;18.90;99.90;;;;;;5070255;28;20171;-69
2021/12/12 09:19:29;;;;;;;9.93;1.73;;;18.90;99.90;;;;;;5071504;28;20263;-69
2021/12/12 09:22:14;;;;;;;5.67;1.47;;;18.80;99.90;;;;;;5073280;28;20171;-70
2021/12/12 09:24:59;;;;;;;9.87;1.50;;;18.80;99.90;;;;;;5073347;28;20176;-69
2021/12/12 09:27:44;;;;;;;10.40;1.77;;;18.70;99.90;;;;;;5068139;28;20179;-68
2021/12/12 09:30:15;;;;;;;6.37;1.67;;;18.80;99.90;;;;;;5063121;28;20186;-70
2021/12/12 09:32:57;;;;;;;7.03;1.90;;;18.70;99.90;;;;;;5071613;28;20245;-69
2021/12/12 09:35:37;;;;;;;9.27;1.70;;;18.70;99.90;;;;;;5071544;28;20615;-67
2021/12/12 09:38:11;;;;;;;9.63;2.20;;;18.80;99.90;;;;;;5071254;28;20277;-69
2021/12/12 09:41:09;;;;;;;11.07;2.00;;;18.70;99.90;;;;;;5071394;28;20176;-68
2021/12/12 09:43:55;;;;;;;7.40;1.60;;;18.80;99.90;;;;;;5071513;28;20261;-69
2021/12/12 09:46:30;;;;;;;10.20;1.97;;;18.80;99.90;;;;;;5069285;28;20172;-69
2021/12/12 09:52:46;;;;;;;11.17;1.83;;;18.70;99.90;;;;;;5071755;28;20294;-68
2021/12/12 09:55:24;;;;;;;9.40;1.60;;;18.60;99.90;;;;;;5039332;28;20656;-68
2021/12/12 09:58:00;;;;;;;12.57;2.17;;;18.60;99.90;;;;;;5071170;28;20176;-70
2021/12/12 10:00:58;;;;;;;4.93;1.53;;;18.50;99.90;;;;;;5070856;28;20543;-69
2021/12/12 10:04:02;;;;;;;10.70;1.60;;;18.50;99.90;;;;;;5071011;28;20181;-68
2021/12/12 10:06:57;;;;;;;8.77;1.90;;;18.50;99.90;;;;;;5069450;28;20235;-70
2021/12/12 10:09:30;;;;;;;11.33;1.77;;;18.50;99.90;;;;;;5070708;28;20181;-69
2021/12/12 10:12:11;;;;;;;14.80;2.00;;;18.50;99.90;;;;;;5071028;28;20302;-69
2021/12/12 10:15:04;;;;;;;10.60;1.87;;;18.50;99.90;;;;;;5070900;28;20704;-70
2021/12/12 10:17:48;;;;;;;8.77;2.30;;;18.40;99.90;;;;;;5070677;28;20176;-69
2021/12/12 10:20:29;;;;;;;11.17;2.27;;;18.40;99.90;;;;;;5068741;28;20180;-68
2021/12/12 10:23:12;;;;;;;9.03;1.77;;;18.50;99.90;;;;;;5070711;28;20633;-68
2021/12/12 10:25:59;;;;;;;9.50;1.87;;;18.50;99.90;;;;;;5069856;28;20245;-70
2021/12/12 10:28:35;;;;;;;10.63;1.80;;;18.40;99.90;;;;;;5072005;28;20266;-69
2021/12/12 10:31:23;;;;;;;13.07;2.00;;;18.40;99.90;;;;;;5076228;28;20194;-69
2021/12/12 10:34:07;;;;;;;10.40;2.23;;;18.40;99.90;;;;;;5075871;28;20288;-70
2021/12/12 10:36:57;;;;;;;10.37;1.93;;;18.30;99.90;;;;;;5076079;28;20169;-70
2021/12/12 10:39:32;;;;;;;8.37;1.80;;;18.30;99.90;;;;;;5076200;28;20175;-70
2021/12/12 10:42:16;;;;;;;9.23;2.27;;;18.30;99.90;;;;;;5075499;28;20172;-70
2021/12/12 10:45:06;;;;;;;9.43;1.50;;;18.30;99.90;;;;;;5054612;28;20330;-69
2021/12/12 10:47:54;;;;;;;10.03;2.50;;;18.30;99.90;;;;;;5058901;28;20192;-70
2021/12/12 10:50:30;;;;;;;10.83;2.07;;;18.10;99.90;;;;;;5073380;28;20187;-69
2021/12/12 10:53:06;;;;;;;8.53;1.73;;;18.20;99.90;;;;;;5073059;28;20210;-71
2021/12/12 10:55:41;;;;;;;7.77;1.67;;;18.20;99.90;;;;;;5075043;28;20647;-70
2021/12/12 10:58:44;;;;;;;11.30;2.13;;;18.30;99.90;;;;;;5073177;28;20262;-69
2021/12/12 11:01:34;;;;;;;12.13;2.10;;;18.20;99.90;;;;;;5016319;28;20641;-69
2021/12/12 11:04:18;;;;;;;9.60;2.00;;;18.20;99.90;;;;;;5090112;28;20272;-70
2021/12/12 11:06:53;;;;;;;12.70;2.37;;;18.30;99.90;;;;;;5075604;28;20223;-69
2021/12/12 11:09:53;;;;;;;12.60;2.57;;;18.30;99.90;;;;;;5076036;28;20167;-69
2021/12/12 11:12:30;;;;;;;9.13;2.47;;;18.10;99.90;;;;;;5064901;28;20195;-71
2021/12/12 11:15:07;;;;;;;16.37;2.47;;;18.20;99.90;;;;;;5075195;28;20187;-70
2021/12/12 11:17:40;;;;;;;7.83;2.00;;;18.10;99.90;;;;;;5074273;28;20184;-72
2021/12/12 11:20:26;;;;;;;18.73;2.37;;;18.10;99.90;;;;;;5075531;28;20176;-69
2021/12/12 11:23:26;;;;;;;10.40;2.10;;;18.00;99.90;;;;;;5074166;28;20233;-70
2021/12/12 11:26:12;;;;;;;8.80;2.43;;;18.00;99.90;;;;;;5054453;28;20555;-70
2021/12/12 11:28:53;;;;;;;9.53;2.87;;;18.10;99.90;;;;;;5068845;28;20194;-71
2021/12/12 11:31:26;;;;;;;10.53;2.60;;;18.10;99.90;;;;;;5074333;28;20218;-69
2021/12/12 11:33:55;;;;;;;12.80;2.20;;;18.00;99.90;;;;;;5074829;28;20221;-70
2021/12/12 11:36:32;;;;;;;10.67;2.47;;;18.10;99.90;;;;;;5075192;28;20169;-69
2021/12/12 11:39:13;;;;;;;10.77;2.43;;;18.10;99.90;;;;;;5073968;28;20200;-70
2021/12/12 11:41:56;;;;;;;13.27;2.83;;;18.00;99.90;;;;;;5074149;28;20172;-70
2021/12/12 11:44:41;;;;;;;18.83;3.10;;;18.00;99.90;;;;;;5075060;28;20286;-70
2021/12/12 11:47:20;;;;;;;9.13;1.90;;;18.00;99.90;;;;;;5075155;28;20228;-70
2021/12/12 11:50:03;;;;;;;10.83;2.50;;;18.00;99.90;;;;;;5054960;28;20680;-71
2021/12/12 11:52:45;;;;;;;12.70;2.30;;;17.90;99.90;;;;;;5054803;28;20630;-70
2021/12/12 11:55:33;;;;;;;11.67;2.73;;;17.90;99.90;;;;;;5073704;28;20194;-70
2021/12/12 11:58:23;;;;;;;12.60;2.83;;;17.80;99.90;;;;;;5074686;28;20172;-70
2021/12/12 12:01:18;;;;;;;16.40;2.47;;;17.90;99.90;;;;;;5074971;28;20169;-70
2021/12/12 12:04:06;;;;;;;19.67;3.13;;;17.90;99.90;;;;;;5074544;28;20172;-70
2021/12/12 12:06:43;;;;;;;16.17;3.10;;;17.80;99.90;;;;;;5074259;28;20230;-70
2021/12/12 12:09:28;;;;;;;17.70;2.50;;;17.80;99.90;;;;;;5074569;28;20221;-70
2021/12/12 12:12:03;;;;;;;19.00;2.60;;;17.80;99.90;;;;;;5074308;28;20176;-69
2021/12/12 12:14:54;;;;;;;14.23;2.70;;;17.90;99.90;;;;;;5073958;28;20711;-69
2021/12/12 12:17:38;;;;;;;14.60;3.07;;;17.80;99.90;;;;;;5074303;28;20209;-69
2021/12/12 12:20:29;;;;;;;14.57;2.73;;;17.80;99.90;;;;;;5074542;28;20516;-69
2021/12/12 12:23:32;;;;;;;19.23;3.70;;;17.60;99.90;;;;;;5072603;28;20183;-71
2021/12/12 12:29:25;;;;;;;11.63;2.87;;;17.60;99.90;;;;;;5074113;28;20181;-69
2021/12/12 12:32:23;;;;;;;15.03;3.20;;;17.60;99.90;;;;;;5074052;28;20230;-70
2021/12/12 12:34:50;;;;;;;27.57;4.27;;;17.60;99.90;;;;;;5073619;28;20216;-71
2021/12/12 12:37:53;;;;;;;13.23;3.67;;;17.60;99.90;;;;;;5074026;28;20176;-70
2021/12/12 12:40:57;;;;;;;16.90;4.07;;;17.60;99.90;;;;;;5074285;28;20174;-69
2021/12/12 12:43:42;;;;;;;16.03;2.63;;;17.60;99.90;;;;;;5073130;28;20650;-71
2021/12/12 12:46:43;;;;;;;14.90;3.30;;;17.60;99.90;;;;;;5073812;28;20180;-70
2021/12/12 12:49:47;;;;;;;14.80;2.70;;;17.60;99.90;;;;;;5073648;28;20542;-69
2021/12/12 12:52:35;;;;;;;15.30;3.40;;;17.50;99.90;;;;;;5073763;28;20233;-71
2021/12/12 12:55:38;;;;;;;13.30;3.37;;;17.50;99.90;;;;;;5073167;28;20180;-70
2021/12/12 12:58:14;;;;;;;9.07;3.00;;;17.40;99.90;;;;;;5073902;28;20663;-71
2021/12/12 13:00:42;;;;;;;18.37;3.37;;;17.50;99.90;;;;;;5071815;28;20188;-71
2021/12/12 13:03:19;;;;;;;12.77;3.20;;;17.50;99.90;;;;;;5071809;28;20266;-71
2021/12/12 13:05:58;;;;;;;14.47;4.00;;;17.40;99.90;;;;;;5073646;28;20281;-70
2021/12/12 13:08:54;;;;;;;20.47;3.80;;;17.40;99.90;;;;;;5073688;28;20210;-71
2021/12/12 13:11:42;;;;;;;12.30;2.60;;;17.40;99.90;;;;;;5073077;28;20187;-70
2021/12/12 13:14:24;;;;;;;16.53;3.23;;;17.30;99.90;;;;;;5073235;28;20222;-70
2021/12/12 13:17:11;;;;;;;11.23;2.70;;;17.30;99.90;;;;;;5073613;28;20267;-71
2021/12/12 13:20:04;;;;;;;12.73;2.93;;;17.40;99.90;;;;;;5073250;28;20537;-71
2021/12/12 13:22:49;;;;;;;13.03;3.27;;;17.40;99.90;;;;;;5073500;28;20179;-70
2021/12/12 13:25:36;;;;;;;20.73;2.80;;;17.30;99.90;;;;;;5071566;28;20553;-71
2021/12/12 13:28:31;;;;;;;11.80;3.17;;;17.40;99.90;;;;;;5073351;28;20659;-72
2021/12/12 13:31:02;;;;;;;13.80;2.90;;;17.30;99.90;;;;;;5072146;28;20187;-71
2021/12/12 13:34:25;;;;;;;14.60;3.33;;;17.30;99.90;;;;;;5073392;28;20202;-71
2021/12/12 13:37:28;;;;;;;15.63;2.43;;;17.30;99.90;;;;;;5051268;28;20571;-71
2021/12/12 13:40:04;;;;;;;15.00;2.93;;;17.30;99.90;;;;;;5034294;28;20238;-70
2021/12/12 13:42:40;;;;;;;17.03;3.17;;;17.30;99.90;;;;;;5053039;28;20191;-71
2021/12/12 13:45:45;;;;;;;15.10;2.47;;;17.30;99.90;;;;;;5053425;28;20609;-72
2021/12/12 13:48:28;;;;;;;11.50;2.80;;;17.30;99.90;;;;;;5051787;28;20233;-69
2021/12/12 13:51:30;;;;;;;12.60;2.70;;;17.30;99.90;;;;;;5054824;28;20174;-71